createdAt,value
2023-04-10T00:01:35.668Z,8.57
2023-04-10T00:04:04.914Z,8.60
2023-04-10T00:06:32.928Z,8.62
2023-04-10T00:09:00.688Z,8.61
2023-04-10T00:11:28.377Z,8.53
2023-04-10T00:13:56.204Z,8.55
2023-04-10T00:16:23.921Z,8.54
2023-04-10T00:18:51.718Z,8.58
2023-04-10T00:21:19.396Z,8.58
2023-04-10T00:23:47.215Z,8.53
2023-04-10T00:26:14.957Z,8.51
2023-04-10T00:28:43.862Z,8.54
2023-04-10T00:31:11.616Z,8.58
2023-04-10T00:33:39.384Z,8.62
2023-04-10T00:36:07.252Z,8.62
2023-04-10T00:38:36.274Z,8.56
2023-04-10T00:41:04.132Z,8.51
2023-04-10T00:43:31.941Z,8.55
2023-04-10T00:45:59.673Z,8.53
2023-04-10T00:48:27.465Z,8.59
2023-04-10T00:50:55.201Z,8.53
2023-04-10T00:53:22.984Z,8.56
2023-04-10T00:55:50.693Z,8.56
2023-04-10T00:58:18.484Z,8.57
2023-04-10T01:00:47.662Z,8.62
2023-04-10T01:03:16.492Z,8.60
2023-04-10T01:05:47.681Z,8.55
2023-04-10T01:08:46.232Z,8.49
2023-04-10T01:11:18.944Z,8.43
2023-04-10T01:14:19.056Z,8.53
2023-04-10T01:16:53.717Z,8.55
2023-04-10T01:19:45.995Z,8.47
2023-04-10T01:22:13.806Z,8.37
2023-04-10T01:24:47.085Z,8.42
2023-04-10T01:27:45.298Z,8.19
2023-04-10T01:30:15.550Z,8.12
2023-04-10T01:32:43.297Z,8.14
2023-04-10T01:35:11.392Z,8.24
2023-04-10T01:37:41.085Z,8.03
2023-04-10T01:40:10.463Z,7.95
2023-04-10T01:42:48.547Z,7.98
2023-04-10T01:45:18.776Z,8.17
2023-04-10T01:47:49.288Z,8.19
2023-04-10T01:50:17.130Z,8.35
2023-04-10T01:52:45.385Z,8.13
2023-04-10T01:55:24.459Z,7.99
2023-04-10T01:58:00.635Z,8.08
2023-04-10T02:00:28.693Z,8.11
2023-04-10T02:02:58.434Z,8.07
2023-04-10T02:05:28.322Z,8.21
2023-04-10T02:08:01.869Z,8.09
2023-04-10T02:10:45.272Z,8.24
2023-04-10T02:13:13.424Z,8.23
2023-04-10T02:15:42.753Z,8.22
2023-04-10T02:18:10.609Z,7.89
2023-04-10T02:20:38.422Z,7.77
2023-04-10T02:23:06.728Z,8.10
2023-04-10T02:25:34.944Z,8.07
2023-04-10T02:28:06.181Z,8.07
2023-04-10T02:30:34.136Z,8.16
2023-04-10T02:33:01.852Z,8.10
2023-04-10T02:35:32.080Z,8.13
2023-04-10T02:37:59.784Z,8.12
2023-04-10T02:40:28.133Z,8.10
2023-04-10T02:43:28.201Z,8.01
2023-04-10T02:45:56.265Z,8.14
2023-04-10T02:48:27.722Z,8.21
2023-04-10T02:51:00.030Z,8.18
2023-04-10T02:53:29.544Z,8.14
2023-04-10T02:56:00.666Z,8.11
2023-04-10T02:58:30.544Z,7.95
2023-04-10T03:00:59.155Z,7.94
2023-04-10T03:03:47.084Z,7.71
2023-04-10T03:06:23.673Z,7.95
2023-04-10T03:08:51.630Z,7.92
2023-04-10T03:11:19.340Z,7.97
2023-04-10T03:13:47.456Z,8.07
2023-04-10T03:16:16.309Z,7.98
2023-04-10T03:18:45.507Z,8.03
2023-04-10T03:21:13.294Z,8.03
2023-04-10T03:23:41.384Z,7.91
2023-04-10T03:26:09.444Z,7.90
2023-04-10T03:28:39.862Z,7.93
2023-04-10T03:31:12.346Z,8.08
2023-04-10T03:33:41.956Z,7.98
2023-04-10T03:36:09.936Z,8.02
2023-04-10T03:38:37.643Z,8.02
2023-04-10T03:41:06.788Z,7.99
2023-04-10T03:43:36.093Z,7.87
2023-04-10T03:46:05.759Z,8.03
2023-04-10T03:48:36.394Z,7.98
2023-04-10T03:51:04.294Z,7.91
2023-04-10T03:53:36.178Z,7.72
2023-04-10T03:56:08.472Z,7.92
2023-04-10T03:58:37.050Z,7.91
2023-04-10T04:01:05.460Z,7.96
2023-04-10T04:03:40.856Z,7.91
2023-04-10T04:06:41.100Z,7.99
2023-04-10T04:09:26.697Z,8.01
2023-04-10T04:12:17.068Z,8.03
2023-04-10T04:15:16.929Z,7.99
2023-04-10T04:17:53.568Z,7.97
2023-04-10T04:20:36.539Z,7.94
2023-04-10T04:23:30.418Z,7.88
2023-04-10T04:26:27.804Z,7.88
2023-04-10T04:29:22.136Z,7.99
2023-04-10T04:32:03.765Z,7.83
2023-04-10T04:34:54.430Z,7.95
2023-04-10T04:37:38.225Z,7.96
2023-04-10T04:40:38.279Z,7.83
2023-04-10T04:43:14.556Z,7.59
2023-04-10T04:46:05.288Z,7.76
2023-04-10T04:49:00.043Z,7.84
2023-04-10T04:51:53.831Z,7.32
2023-04-10T04:54:38.279Z,7.17
2023-04-10T04:57:38.213Z,7.76
2023-04-10T05:00:18.509Z,7.34
2023-04-10T05:03:08.190Z,7.64
2023-04-10T05:05:55.602Z,7.61
2023-04-10T05:08:34.645Z,7.74
2023-04-10T05:11:23.764Z,7.79
2023-04-10T05:14:15.473Z,7.59
2023-04-10T05:17:21.664Z,7.54
2023-04-10T05:20:00.746Z,7.73
2023-04-10T05:23:01.073Z,7.87
2023-04-10T05:25:55.747Z,7.83
2023-04-10T05:28:52.815Z,8.06
2023-04-10T05:31:43.747Z,8.07
2023-04-10T05:34:34.518Z,7.60
2023-04-10T05:37:20.697Z,7.99
2023-04-10T05:40:02.372Z,7.45
2023-04-10T05:42:56.087Z,8.02
2023-04-10T05:45:55.829Z,8.03
2023-04-10T05:48:48.869Z,8.07
2023-04-10T05:51:22.403Z,7.80
2023-04-10T05:54:15.714Z,7.96
2023-04-10T05:57:05.240Z,8.31
2023-04-10T06:00:11.983Z,8.42
2023-04-10T06:02:42.752Z,8.10
2023-04-10T06:05:18.694Z,8.44
2023-04-10T06:07:46.947Z,8.25
2023-04-10T06:10:15.972Z,8.53
2023-04-10T06:12:43.960Z,8.53
2023-04-10T06:15:12.412Z,8.73
2023-04-10T06:17:46.310Z,8.67
2023-04-10T06:20:14.167Z,8.52
2023-04-10T06:22:41.879Z,8.66
2023-04-10T06:25:09.995Z,8.35
2023-04-10T06:27:37.728Z,8.44
2023-04-10T06:30:09.522Z,8.17
2023-04-10T06:32:37.400Z,8.43
2023-04-10T06:35:06.073Z,8.56
2023-04-10T06:37:33.838Z,8.77
2023-04-10T06:40:04.330Z,8.89
2023-04-10T06:42:32.132Z,8.84
2023-04-10T06:45:06.901Z,8.91
2023-04-10T06:47:34.650Z,8.76
2023-04-10T06:50:02.491Z,9.11
2023-04-10T06:52:30.569Z,9.13
2023-04-10T06:54:58.349Z,9.26
2023-04-10T06:57:26.107Z,9.21
2023-04-10T06:59:53.934Z,9.19
2023-04-10T07:02:21.725Z,9.16
2023-04-10T07:04:50.108Z,9.13
2023-04-10T07:07:19.309Z,9.33
2023-04-10T07:09:48.296Z,9.60
2023-04-10T07:12:16.594Z,9.75
2023-04-10T07:14:44.355Z,9.56
2023-04-10T07:17:12.076Z,9.83
2023-04-10T07:19:39.867Z,9.57
2023-04-10T07:22:07.947Z,9.81
2023-04-10T07:24:35.753Z,10.06
2023-04-10T07:27:03.709Z,10.05
2023-04-10T07:29:31.742Z,9.82
2023-04-10T07:31:59.603Z,9.77
2023-04-10T07:34:27.451Z,9.87
2023-04-10T07:36:55.505Z,9.86
2023-04-10T07:39:23.305Z,9.94
2023-04-10T07:41:53.436Z,9.73
2023-04-10T07:44:21.253Z,9.97
2023-04-10T07:46:49.481Z,10.11
2023-04-10T07:49:17.295Z,10.39
2023-04-10T07:51:44.965Z,10.27
2023-04-10T07:54:12.782Z,9.79
2023-04-10T07:56:40.500Z,9.41
2023-04-10T07:59:08.280Z,10.12
2023-04-10T08:01:36.125Z,10.34
2023-04-10T08:04:05.928Z,10.60
2023-04-10T08:06:33.925Z,10.30
2023-04-10T08:09:02.155Z,10.58
2023-04-10T08:11:31.027Z,10.21
2023-04-10T08:14:02.291Z,10.55
2023-04-10T08:16:34.190Z,10.33
2023-04-10T08:19:02.195Z,10.47
2023-04-10T08:21:30.381Z,10.50
2023-04-10T08:23:59.634Z,10.68
2023-04-10T08:26:27.602Z,10.75
2023-04-10T08:28:56.908Z,10.84
2023-04-10T08:31:25.451Z,10.73
2023-04-10T08:33:53.659Z,10.99
2023-04-10T08:36:21.660Z,10.67
2023-04-10T08:38:49.464Z,10.44
2023-04-10T08:41:18.048Z,9.78
2023-04-10T08:43:46.436Z,10.23
2023-04-10T08:46:14.860Z,10.13
2023-04-10T08:49:02.730Z,9.97
2023-04-10T08:51:40.059Z,10.10
2023-04-10T08:54:10.684Z,10.00
2023-04-10T08:56:38.376Z,10.13
2023-04-10T08:59:06.041Z,10.06
2023-04-10T09:01:34.930Z,9.93
2023-04-10T09:04:02.898Z,10.02
2023-04-10T09:06:31.531Z,9.23
2023-04-10T09:09:02.336Z,9.44
2023-04-10T09:11:52.300Z,9.55
2023-04-10T09:14:23.915Z,9.65
2023-04-10T09:16:52.539Z,9.79
2023-04-10T09:19:33.184Z,9.79
2023-04-10T09:22:01.144Z,9.76
2023-04-10T09:24:28.904Z,9.80
2023-04-10T09:26:56.717Z,10.08
2023-04-10T09:29:24.397Z,10.00
2023-04-10T09:31:52.112Z,10.60
2023-04-10T09:34:24.308Z,10.47
2023-04-10T09:36:58.850Z,10.22
2023-04-10T09:39:36.981Z,9.81
2023-04-10T09:42:04.767Z,9.77
2023-04-10T09:44:34.299Z,10.04
2023-04-10T09:47:14.024Z,10.22
2023-04-10T09:49:48.661Z,10.45
2023-04-10T09:52:33.678Z,10.79
2023-04-10T09:55:05.788Z,10.91
2023-04-10T09:57:34.244Z,9.55
2023-04-10T10:00:04.471Z,9.86
2023-04-10T10:02:39.194Z,10.48
2023-04-10T10:05:07.825Z,10.76
2023-04-10T10:07:35.887Z,10.03
2023-04-10T10:10:03.830Z,10.09
2023-04-10T10:12:40.257Z,10.07
2023-04-10T10:15:34.484Z,9.67
2023-04-10T10:18:22.899Z,10.00
2023-04-10T10:20:50.884Z,9.59
2023-04-10T10:23:18.602Z,10.53
2023-04-10T10:25:46.501Z,9.95
2023-04-10T10:28:14.686Z,9.96
2023-04-10T10:30:42.389Z,10.13
2023-04-10T10:33:10.155Z,10.08
2023-04-10T10:35:37.839Z,9.89
2023-04-10T10:38:05.824Z,9.34
2023-04-10T10:40:55.344Z,9.10
2023-04-10T10:43:38.174Z,9.25
2023-04-10T10:46:13.107Z,9.68
2023-04-10T10:48:40.951Z,9.19
2023-04-10T10:51:08.597Z,9.53
2023-04-10T10:53:43.429Z,9.86
2023-04-10T10:56:20.602Z,9.95
2023-04-10T10:59:02.029Z,9.91
2023-04-10T11:01:29.864Z,9.00
2023-04-10T11:03:58.057Z,8.76
2023-04-10T11:06:48.377Z,8.45
2023-04-10T11:09:48.615Z,8.73
2023-04-10T11:12:20.421Z,9.08
2023-04-10T11:14:58.905Z,8.16
2023-04-10T11:17:49.958Z,8.13
2023-04-10T11:20:19.406Z,7.74
2023-04-10T11:23:12.799Z,7.66
2023-04-10T11:25:51.340Z,7.50
2023-04-10T11:28:36.063Z,8.06
2023-04-10T11:31:20.112Z,7.73
2023-04-10T11:33:48.725Z,8.28
2023-04-10T11:36:19.449Z,8.46
2023-04-10T11:39:13.964Z,8.14
2023-04-10T11:41:42.818Z,8.24
2023-04-10T11:44:14.396Z,8.66
2023-04-10T11:46:48.337Z,9.09
2023-04-10T11:49:34.652Z,8.30
2023-04-10T11:52:03.064Z,7.77
2023-04-10T11:54:31.263Z,8.13
2023-04-10T11:57:03.435Z,8.82
2023-04-10T11:59:32.345Z,8.70
2023-04-10T12:02:09.525Z,8.69
2023-04-10T12:04:37.967Z,9.23
2023-04-10T12:07:06.161Z,9.44
2023-04-10T12:09:34.028Z,9.22
2023-04-10T12:12:06.017Z,10.15
2023-04-10T12:14:41.477Z,10.15
2023-04-10T12:17:10.459Z,10.30
2023-04-10T12:19:38.582Z,10.57
2023-04-10T12:22:06.705Z,10.92
2023-04-10T12:24:51.031Z,10.35
2023-04-10T12:27:22.781Z,10.68
2023-04-10T12:29:51.574Z,10.16
2023-04-10T12:32:19.408Z,9.49
2023-04-10T12:34:57.298Z,10.53
2023-04-10T12:37:26.013Z,10.00
2023-04-10T12:39:53.878Z,10.83
2023-04-10T12:42:22.775Z,10.36
2023-04-10T12:44:57.243Z,10.46
2023-04-10T12:47:25.720Z,10.77
2023-04-10T12:50:09.055Z,10.07
2023-04-10T12:52:37.795Z,10.65
2023-04-10T12:55:18.782Z,10.80
2023-04-10T12:57:47.534Z,11.27
2023-04-10T13:00:17.503Z,10.92
2023-04-10T13:02:45.798Z,11.49
2023-04-10T13:05:13.661Z,11.67
2023-04-10T13:07:41.430Z,10.03
2023-04-10T13:10:09.438Z,10.11
2023-04-10T13:12:38.841Z,10.02
2023-04-10T13:15:07.829Z,9.84
2023-04-10T13:17:35.957Z,10.15
2023-04-10T13:20:04.720Z,9.47
2023-04-10T13:22:32.493Z,10.09
2023-04-10T13:25:00.363Z,9.62
2023-04-10T13:27:28.089Z,10.25
2023-04-10T13:29:55.894Z,10.02
2023-04-10T13:32:23.692Z,10.15
2023-04-10T13:34:51.642Z,10.17
2023-04-10T13:37:20.283Z,10.41
2023-04-10T13:39:48.053Z,10.48
2023-04-10T13:42:15.888Z,10.12
2023-04-10T13:44:43.612Z,10.18
2023-04-10T13:47:11.326Z,10.20
2023-04-10T13:49:39.103Z,10.64
2023-04-10T13:52:06.796Z,10.75
2023-04-10T13:54:34.495Z,10.34
2023-04-10T13:57:05.252Z,10.84
2023-04-10T13:59:33.068Z,10.93
2023-04-10T14:02:00.880Z,10.01
2023-04-10T14:04:28.733Z,10.78
2023-04-10T14:06:59.918Z,11.09
2023-04-10T14:09:28.322Z,10.01
2023-04-10T14:11:56.251Z,10.21
2023-04-10T14:14:24.195Z,10.45
2023-04-10T14:16:51.855Z,10.47
2023-04-10T14:19:19.772Z,10.53
2023-04-10T14:21:47.468Z,10.67
2023-04-10T14:24:15.198Z,11.24
2023-04-10T14:26:43.468Z,10.77
2023-04-10T14:29:11.288Z,10.42
2023-04-10T14:31:47.108Z,11.07
2023-04-10T14:34:24.808Z,11.47
2023-04-10T14:36:55.900Z,10.91
2023-04-10T14:39:24.627Z,10.05
2023-04-10T14:41:52.365Z,10.33
2023-04-10T14:44:20.241Z,10.65
2023-04-10T14:46:47.979Z,10.56
2023-04-10T14:49:15.791Z,10.45
2023-04-10T14:51:44.564Z,10.82
2023-04-10T14:54:12.351Z,10.78
2023-04-10T14:56:40.185Z,10.58
2023-04-10T14:59:08.449Z,10.59
2023-04-10T15:01:36.218Z,10.63
2023-04-10T15:04:04.307Z,10.81
2023-04-10T15:06:35.059Z,11.18
2023-04-10T15:09:03.043Z,10.29
2023-04-10T15:11:30.900Z,9.28
2023-04-10T15:14:02.289Z,8.42
2023-04-10T15:16:30.637Z,7.93
2023-04-10T15:18:58.358Z,7.26
2023-04-10T15:21:27.350Z,8.29
2023-04-10T15:23:55.510Z,6.90
2023-04-10T15:26:23.411Z,7.62
2023-04-10T15:28:51.127Z,7.87
2023-04-10T15:31:22.178Z,8.36
2023-04-10T15:33:51.531Z,8.70
2023-04-10T15:36:19.438Z,7.62
2023-04-10T15:38:48.740Z,7.89
2023-04-10T15:41:17.901Z,7.79
2023-04-10T15:43:45.562Z,7.66
2023-04-10T15:46:14.087Z,7.99
2023-04-10T15:48:41.816Z,7.67
2023-04-10T15:51:09.571Z,7.80
2023-04-10T15:53:37.311Z,7.93
2023-04-10T15:56:05.827Z,7.87
2023-04-10T15:58:33.749Z,8.02
2023-04-10T16:01:01.841Z,8.32
2023-04-10T16:03:30.384Z,8.68
2023-04-10T16:05:58.681Z,8.88
2023-04-10T16:08:27.394Z,8.61
2023-04-10T16:10:55.887Z,8.28
2023-04-10T16:13:23.578Z,8.52
2023-04-10T16:15:51.424Z,8.61
2023-04-10T16:18:19.220Z,8.71
2023-04-10T16:20:47.121Z,8.87
2023-04-10T16:23:14.827Z,8.66
2023-04-10T16:25:42.750Z,8.67
2023-04-10T16:28:10.589Z,8.89
2023-04-10T16:30:39.994Z,9.05
2023-04-10T16:33:07.797Z,9.08
2023-04-10T16:35:35.930Z,9.06
2023-04-10T16:38:03.757Z,8.65
2023-04-10T16:40:33.025Z,8.69
2023-04-10T16:43:01.986Z,8.80
2023-04-10T16:45:29.912Z,8.62
2023-04-10T16:47:57.730Z,8.80
2023-04-10T16:50:25.600Z,8.80
2023-04-10T16:52:53.309Z,8.93
2023-04-10T16:55:21.116Z,8.86
2023-04-10T16:57:48.853Z,9.05
2023-04-10T17:00:16.906Z,8.97
2023-04-10T17:02:44.765Z,8.86
2023-04-10T17:05:13.734Z,8.99
2023-04-10T17:07:43.728Z,8.97
2023-04-10T17:10:12.701Z,8.45
2023-04-10T17:12:40.477Z,6.84
2023-04-10T17:15:08.379Z,5.32
2023-04-10T17:17:36.271Z,5.18
2023-04-10T17:20:04.469Z,5.69
2023-04-10T17:22:32.187Z,5.40
2023-04-10T17:25:00.521Z,5.73
2023-04-10T17:27:28.292Z,5.70
2023-04-10T17:29:56.030Z,5.46
2023-04-10T17:32:23.704Z,5.40
2023-04-10T17:34:51.503Z,6.37
2023-04-10T17:37:19.892Z,6.49
2023-04-10T17:39:47.670Z,6.70
2023-04-10T17:42:15.637Z,6.78
2023-04-10T17:44:43.419Z,6.65
2023-04-10T17:47:11.183Z,7.01
2023-04-10T17:49:40.484Z,7.00
2023-04-10T17:52:08.175Z,6.49
2023-04-10T17:54:35.947Z,7.29
2023-04-10T17:57:04.348Z,6.78
2023-04-10T17:59:32.147Z,6.93
2023-04-10T18:01:59.992Z,7.19
2023-04-10T18:04:27.811Z,7.67
2023-04-10T18:06:55.561Z,7.44
2023-04-10T18:09:23.314Z,7.53
2023-04-10T18:11:52.231Z,7.18
2023-04-10T18:14:20.137Z,7.60
2023-04-10T18:16:48.534Z,7.16
2023-04-10T18:19:16.274Z,7.69
2023-04-10T18:21:44.025Z,7.72
2023-04-10T18:24:12.124Z,6.50
2023-04-10T18:26:40.560Z,6.88
2023-04-10T18:29:08.284Z,7.09
2023-04-10T18:31:36.568Z,7.24
2023-04-10T18:34:08.193Z,7.37
2023-04-10T18:36:36.457Z,7.35
2023-04-10T18:39:04.852Z,7.55
2023-04-10T18:41:32.820Z,7.77
2023-04-10T18:44:05.270Z,7.30
2023-04-10T18:46:33.778Z,7.07
2023-04-10T18:49:03.089Z,7.55
2023-04-10T18:51:33.431Z,7.91
2023-04-10T18:54:05.419Z,7.82
2023-04-10T18:56:35.627Z,7.83
2023-04-10T18:59:04.364Z,7.79
2023-04-10T19:01:32.289Z,7.93
2023-04-10T19:04:00.231Z,8.07
2023-04-10T19:06:28.579Z,8.06
2023-04-10T19:08:56.281Z,7.40
2023-04-10T19:11:24.209Z,7.55
2023-04-10T19:13:51.929Z,7.81
2023-04-10T19:16:20.513Z,8.03
2023-04-10T19:18:48.494Z,8.08
2023-04-10T19:21:16.284Z,8.08
2023-04-10T19:23:44.494Z,8.21
2023-04-10T19:26:12.333Z,8.04
2023-04-10T19:28:40.279Z,7.94
2023-04-10T19:31:08.747Z,8.08
2023-04-10T19:33:36.497Z,7.60
2023-04-10T19:38:33.000Z,7.70
2023-04-10T19:41:00.755Z,7.95
2023-04-10T19:43:28.469Z,7.91
2023-04-10T19:45:56.330Z,7.48
2023-04-10T19:48:23.990Z,7.75
2023-04-10T19:50:51.704Z,7.96
2023-04-10T19:53:19.426Z,7.98
2023-04-10T19:55:47.337Z,8.06
2023-04-10T19:58:30.521Z,7.97
2023-04-10T20:01:06.419Z,7.84
2023-04-10T20:03:35.669Z,7.91
2023-04-10T20:06:04.079Z,7.94
2023-04-10T20:08:31.785Z,7.86
2023-04-10T20:10:59.650Z,7.92
2023-04-10T20:13:27.353Z,7.92
2023-04-10T20:15:55.179Z,7.98
2023-04-10T20:18:22.904Z,7.85
2023-04-10T20:20:50.671Z,7.75
2023-04-10T20:23:18.807Z,7.92
2023-04-10T20:25:46.657Z,7.83
2023-04-10T20:28:15.560Z,7.65
2023-04-10T20:30:44.020Z,7.56
2023-04-10T20:33:11.883Z,7.52
2023-04-10T20:35:39.782Z,7.41
2023-04-10T20:38:08.532Z,7.63
2023-04-10T20:40:36.264Z,7.88
2023-04-10T20:43:10.826Z,7.64
2023-04-10T20:45:39.250Z,7.39
2023-04-10T20:48:08.363Z,7.49
2023-04-10T20:50:37.113Z,7.52
2023-04-10T20:53:04.805Z,7.65
2023-04-10T20:55:32.572Z,7.75
2023-04-10T20:58:00.303Z,7.67
2023-04-10T21:00:30.883Z,7.63
2023-04-10T21:02:59.361Z,7.32
2023-04-10T21:05:27.203Z,7.30
2023-04-10T21:07:54.925Z,7.40
2023-04-10T21:10:22.711Z,7.13
2023-04-10T21:12:50.632Z,6.26
2023-04-10T21:15:18.384Z,5.45
2023-04-10T21:17:46.091Z,4.82
2023-04-10T21:20:13.934Z,4.97
2023-04-10T21:22:41.620Z,4.96
2023-04-10T21:25:09.774Z,4.85
2023-04-10T21:27:37.490Z,4.60
2023-04-10T21:30:05.815Z,4.79
2023-04-10T21:32:33.597Z,5.77
2023-04-10T21:35:01.402Z,5.11
2023-04-10T21:37:29.083Z,5.71
2023-04-10T21:39:56.799Z,6.22
2023-04-10T21:42:24.501Z,6.26
2023-04-10T21:44:53.417Z,6.64
2023-04-10T21:47:21.199Z,6.90
2023-04-10T21:49:48.893Z,6.93
2023-04-10T21:52:16.692Z,6.75
2023-04-10T21:54:44.368Z,7.00
2023-04-10T21:57:12.068Z,6.89
2023-04-10T21:59:39.749Z,7.14
2023-04-10T22:02:07.630Z,6.64
2023-04-10T22:04:38.919Z,6.53
2023-04-10T22:07:12.594Z,6.49
2023-04-10T22:09:40.386Z,6.47
2023-04-10T22:12:08.102Z,6.58
2023-04-10T22:14:35.795Z,6.46
2023-04-10T22:17:03.591Z,6.32
2023-04-10T22:19:31.354Z,6.34
2023-04-10T22:21:59.101Z,6.78
2023-04-10T22:24:26.795Z,7.08
2023-04-10T22:26:54.524Z,7.07
2023-04-10T22:29:22.194Z,7.07
2023-04-10T22:31:49.929Z,7.08
2023-04-10T22:34:17.561Z,7.14
2023-04-10T22:36:45.345Z,7.19
2023-04-10T22:39:13.339Z,7.20
2023-04-10T22:41:42.814Z,7.10
2023-04-10T22:44:10.585Z,7.23
2023-04-10T22:46:38.406Z,7.43
2023-04-10T22:49:07.051Z,6.98
2023-04-10T22:51:34.792Z,7.23
2023-04-10T22:54:02.503Z,7.29
2023-04-10T22:56:30.294Z,7.13
2023-04-10T22:58:57.990Z,6.63
2023-04-10T23:01:25.811Z,6.69
2023-04-10T23:03:53.994Z,7.13
2023-04-10T23:06:21.880Z,7.19
2023-04-10T23:08:51.195Z,6.91
2023-04-10T23:11:18.936Z,6.65
2023-04-10T23:13:46.651Z,6.15
2023-04-10T23:16:14.448Z,6.56
2023-04-10T23:18:42.134Z,6.73
2023-04-10T23:21:09.842Z,6.82
2023-04-10T23:23:37.561Z,6.05
2023-04-10T23:26:05.758Z,6.38
2023-04-10T23:28:33.504Z,6.97
2023-04-10T23:31:01.215Z,7.02
2023-04-10T23:33:28.897Z,7.13
2023-04-10T23:35:56.668Z,6.72
2023-04-10T23:38:24.525Z,6.45
2023-04-10T23:40:52.305Z,6.02
2023-04-10T23:43:20.132Z,5.79
2023-04-10T23:45:47.890Z,5.63
2023-04-10T23:48:15.634Z,6.50
2023-04-10T23:50:43.353Z,6.19
2023-04-10T23:53:11.854Z,6.44
2023-04-10T23:55:41.485Z,6.34
2023-04-10T23:58:09.315Z,6.47
